Time,TemperatureF,DewpointF,PressureIn,WindDirection,WindDirectionDegrees,WindSpeedMPH,WindSpeedGustMPH,Humidity,HourlyPrecipIn,Conditions,Clouds,dailyrainin,SoftwareType,DateUTC
2013-08-14 00:10:00,76.0,-99.9,-100.00,ESE,109,4.0,14.0,-999,-99.99,,,-99.99,,2013-08-14 05:10:00,
2013-08-14 00:22:00,77.0,-99.9,-100.00,SE,143,10.0,16.0,-999,-99.99,,,-99.99,,2013-08-14 05:22:00,
2013-08-14 00:42:00,76.0,-99.9,-100.00,SE,129,10.0,19.0,-999,-99.99,,,-99.99,,2013-08-14 05:42:00,
2013-08-14 00:52:00,76.0,-99.9,-100.00,ESE,109,4.0,14.0,-999,-99.99,,,-99.99,,2013-08-14 05:52:00,
2013-08-14 01:01:00,76.0,-99.9,-100.00,ESE,109,4.0,14.0,-999,-99.99,,,-99.99,,2013-08-14 06:01:00,
2013-08-14 01:52:00,75.0,-99.9,-100.00,SE,126,16.0,16.0,-999,-99.99,,,-99.99,,2013-08-14 06:52:00,
2013-08-14 02:01:00,75.0,-99.9,-100.00,SE,126,16.0,16.0,-999,-99.99,,,-99.99,,2013-08-14 07:01:00,
2013-08-14 03:52:00,73.0,-99.9,-100.00,SSE,151,8.0,9.0,-999,-99.99,,,-99.99,,2013-08-14 08:52:00,
2013-08-14 04:02:00,73.0,-99.9,-100.00,SSE,151,8.0,9.0,-999,-99.99,,,-99.99,,2013-08-14 09:02:00,
2013-08-14 04:40:00,69.0,-99.9,-100.00,SE,144,2.0,4.0,-999,-99.99,,,-99.99,,2013-08-14 09:40:00,
2013-08-14 04:43:00,70.0,-99.9,-100.00,SSW,211,2.0,3.0,-999,-99.99,,,-99.99,,2013-08-14 09:43:00,
2013-08-14 04:53:00,70.0,-99.9,-100.00,SSW,211,2.0,3.0,-999,-99.99,,,-99.99,,2013-08-14 09:53:00,
2013-08-14 05:23:00,69.0,-99.9,-100.00,SE,144,2.0,4.0,-999,-99.99,,,-99.99,,2013-08-14 10:23:00,
2013-08-14 05:32:00,69.0,-99.9,-100.00,SE,144,2.0,4.0,-999,-99.99,,,-99.99,,2013-08-14 10:32:00,
2013-08-14 06:40:00,68.0,-99.9,-100.00,South,179,3.0,3.0,-999,-99.99,,,-99.99,,2013-08-14 11:40:00,
2013-08-14 07:21:00,68.0,-99.9,-100.00,South,179,3.0,3.0,-999,-99.99,,,-99.99,,2013-08-14 12:21:00,
2013-08-14 07:32:00,68.0,-99.9,-100.00,South,179,3.0,3.0,-999,-99.99,,,-99.99,,2013-08-14 12:32:00,
2013-08-14 08:20:00,73.0,-99.9,-100.00,South,183,2.0,3.0,-999,-99.99,,,-99.99,,2013-08-14 13:20:00,
2013-08-14 09:11:00,73.0,-99.9,-100.00,South,183,2.0,3.0,-999,-99.99,,,-99.99,,2013-08-14 14:11:00,
2013-08-14 10:10:00,80.0,-99.9,-100.00,East,96,5.0,11.0,-999,-99.99,,,-99.99,,2013-08-14 15:10:00,
2013-08-14 10:57:00,80.0,-99.9,-100.00,East,96,5.0,11.0,-999,-99.99,,,-99.99,,2013-08-14 15:57:00,
2013-08-14 11:04:00,80.0,-99.9,-100.00,East,96,5.0,11.0,-999,-99.99,,,-99.99,,2013-08-14 16:04:00,
2013-08-14 11:50:00,83.0,-99.9,-100.00,NE,35,14.0,20.0,-999,-99.99,,,-99.99,,2013-08-14 16:50:00,
2013-08-14 12:44:00,83.0,-99.9,-100.00,NE,35,14.0,20.0,-999,-99.99,,,-99.99,,2013-08-14 17:44:00,
2013-08-14 13:50:00,82.0,-99.9,-100.00,ESE,102,9.0,16.0,-999,-99.99,,,-99.99,,2013-08-14 18:50:00,
2013-08-14 14:42:00,82.0,-99.9,-100.00,ESE,102,9.0,16.0,-999,-99.99,,,-99.99,,2013-08-14 19:42:00,
2013-08-14 15:50:00,82.0,-99.9,-100.00,ENE,75,8.0,16.0,-999,-99.99,,,-99.99,,2013-08-14 20:50:00,
2013-08-14 16:45:00,82.0,-99.9,-100.00,ENE,75,8.0,16.0,-999,-99.99,,,-99.99,,2013-08-14 21:45:00,
2013-08-14 17:50:00,85.0,-99.9,-100.00,ENE,76,4.0,13.0,-999,-99.99,,,-99.99,,2013-08-14 22:50:00,
2013-08-14 18:46:00,85.0,-99.9,-100.00,ENE,76,4.0,13.0,-999,-99.99,,,-99.99,,2013-08-14 23:46:00,
2013-08-14 19:50:00,83.0,-99.9,-100.00,ENE,71,4.0,10.0,-999,-99.99,,,-99.99,,2013-08-15 00:50:00,
2013-08-14 20:42:00,83.0,-99.9,-100.00,ENE,71,4.0,10.0,-999,-99.99,,,-99.99,,2013-08-15 01:42:00,
2013-08-14 21:21:00,81.0,-99.9,-100.00,East,82,4.0,7.0,-999,-99.99,,,-99.99,,2013-08-15 02:21:00,
2013-08-14 23:13:00,78.0,-99.9,-100.00,SE,126,8.0,8.0,-999,-99.99,,,-99.99,,2013-08-15 04:13:00,
2013-08-14 23:23:00,78.0,-99.9,-100.00,SE,126,8.0,8.0,-999,-99.99,,,-99.99,,2013-08-15 04:23:00,